LFRB/BES METAR and TAF weather

Enter ICAO airport designator
Station Type Date Time Source
LFRB METAR 2020/12/06 02:00 UTC NOAA

LFRB 060200Z AUTO 35011KT 9999 SCT027 BKN034 06/02 Q1000 TEMPO SCT025TCU


Station Type Date Time Source
LFRB Decoded METAR 2020/12/06 02:00 UTC NOAA

Brest, France (LFRB) 48-27N 004-25W 103M
Dec 05, 2020 - 09:00 PM EST / 2020.12.06 0200 UTC
Wind: from the N (350 degrees) at 13 MPH (11 KT):0
Visibility: greater than 7 mile(s):0
Sky conditions: mostly cloudy
Weather: Towering cumulus clouds observed
Temperature: 42 F (6 C)
Dew Point: 35 F (2 C)
Relative Humidity: 75%
Pressure (altimeter): 29.53 in. Hg (1000 hPa)
ob: LFRB 060200Z AUTO 35011KT 9999 SCT027 BKN034 06/02 Q1000 TEMPO SCT025TCU
cycle: 2

Station Type Date Time Source
LFRB TAF 2020/12/05 22:14 UTC NOAA

TAF
AMD LFRB 052207Z 0522/0624 34015G30KT 9999 BKN030
TEMPO 0522/0524 34015G25KT 3000 SHRA BKN013 BKN015CB
BECMG 0600/0602 35012KT
BECMG 0614/0616 33005KT
BECMG 0618/0620 3000 BR
TEMPO 0620/0624 0500 FG

Example: see airport list